Track Кралинов Константин

Time Latitude Longitude Accuracy (66% radius in meters) Altitude (meters) Speed (km/hour) Bearing (degrees) Battery (%) GPS flag
11:00:29 51.810994 39.391088 6 115.62010948657 0 113.8667755127 76 1 delete
11:00:05 51.810994 39.391088 6 115.61602924917 0 113.8667755127 76 1 delete
10:59:53 51.810994 39.391088 6 115.55469961089 0 113.8667755127 76 1 delete
10:59:41 51.810994 39.391088 6 115.48786930543 0 113.8667755127 76 1 delete
10:59:26 51.810994 39.391088 6 115.38663045792 0 113.8667755127 76 1 delete
10:59:14 51.810994 39.391088 6 115.31608276669 0 113.8667755127 76 1 delete
10:59:05 51.810994 39.391088 6 115.24463327252 0 113.8667755127 76 1 delete
10:58:53 51.810994 39.391088 4 115.19016169802 0 113.8667755127 76 1 delete
10:58:41 51.810994 39.391088 4 115.09439644541 0 113.8667755127 76 1 delete
10:58:29 51.810994 39.391088 4 115.01681849035 0 113.8667755127 76 1 delete
10:58:11 51.810994 39.391088 4 114.97809724377 0 113.8667755127 76 1 delete
10:57:56 51.810994 39.391088 4 115.09322753914 0 113.8667755127 76 1 delete
10:57:44 51.810994 39.391088 6 115.13188589795 0 113.8667755127 76 1 delete
10:57:32 51.810994 39.391088 6 115.11264935216 0 113.8667755127 76 1 delete
10:57:20 51.810994 39.391088 4 115.05107516821 0 113.8667755127 76 1 delete
10:57:08 51.810994 39.391088 4 114.94079665224 0 113.8667755127 76 1 delete
10:56:53 51.810994 39.391088 4 114.82604150771 0 113.8667755127 76 1 delete
10:56:41 51.810994 39.391088 4 114.71726708564 0 113.8667755127 76 1 delete
10:56:29 51.810994 39.391088 4 114.61609303433 0 113.8667755127 76 1 delete
10:56:17 51.810994 39.391088 4 114.44062218258 0 113.8667755127 76 1 delete
10:56:05 51.810994 39.391088 4 114.23284152557 0 113.8667755127 76 1 delete
10:55:53 51.810994 39.391088 6 114.04852184339 0 113.8667755127 76 1 delete
10:55:38 51.810994 39.391088 4 113.86755879742 0 113.8667755127 76 1 delete
10:55:26 51.810994 39.391088 4 113.80118691122 0 113.8667755127 76 1 delete
10:55:14 51.810994 39.391088 4 113.84198471118 0 113.8667755127 76 1 delete
10:55:02 51.810994 39.391088 4 113.90351207606 0 113.8667755127 76 1 delete
10:54:50 51.810994 39.391088 4 114.00746605247 0 113.8667755127 76 1 delete
10:54:35 51.810994 39.391088 4 114.13750909159 0 113.8667755127 76 1 delete
10:54:14 51.810994 39.391088 4 114.28993114905 0 113.8667755127 76 1 delete
10:54:02 51.810994 39.391088 4 114.37483680708 0 113.8667755127 76 1 delete
10:53:38 51.810994 39.391088 4 114.39873733416 0 113.8667755127 76 1 delete
10:53:23 51.810994 39.391088 4 114.35094577394 0 113.8667755127 76 1 delete
10:53:11 51.810994 39.391088 4 114.31504398795 0 113.8667755127 76 1 delete
10:52:59 51.810994 39.391088 4 114.26060254435 0 113.8667755127 76 1 delete
10:52:47 51.810994 39.391088 4 114.15929550386 0 113.8667755127 76 1 delete
10:52:35 51.810994 39.391088 4 114.06213148658 0 113.8667755127 76 1 delete
10:52:23 51.810994 39.391088 4 114.05692189832 0 113.8667755127 76 1 delete
10:52:08 51.810994 39.391088 6 114.13274033339 0 113.8667755127 76 1 delete
10:51:53 51.810994 39.391088 6 114.24740478522 0 113.8667755127 76 1 delete
10:51:41 51.810994 39.391088 4 114.3407890026 0 113.8667755127 76 1 delete
10:51:29 51.810994 39.391088 4 114.42533392729 0 113.8667755127 79 1 delete
10:51:15 51.810994 39.391088 6 114.49944491573 0 113.8667755127 79 1 delete
10:51:06 51.810994 39.391088 4 114.56691793457 0 113.8667755127 79 1 delete
10:50:51 51.810994 39.391088 4 114.66128418837 0 113.8667755127 79 1 delete
10:50:39 51.810994 39.391088 4 114.61026160745 0 113.8667755127 79 1 delete
10:50:24 51.810994 39.391088 6 114.49335147317 0 113.8667755127 79 1 delete
10:50:12 51.810994 39.391088 6 114.51405467805 0 113.8667755127 79 1 delete
10:50:00 51.810994 39.391088 4 114.5416308607 0 113.8667755127 79 1 delete
10:49:48 51.810994 39.391088 6 114.54472788567 0 113.8667755127 79 1 delete
10:49:36 51.810994 39.391088 4 114.58649388844 0 113.8667755127 79 1 delete